Time;durP1;ratioP1;P1;durP2;ratioP2;P2;SDS_P1;SDS_P2;PMS_P1;PMS_P2;Temp;Humidity;BMP_temperature;BMP_pressure;BME280_temperature;BME280_humidity;BME280_pressure;Samples;Min_cycle;Max_cycle;Signal;HPM_P1;HPM_P2
2023/03/30 00:00:17;;;;;;;11.17;3.47;;;18.10;97.40;;;;;;5025063;28;20445;-65
2023/03/30 00:02:44;;;;;;;11.70;3.97;;;18.10;97.40;;;;;;5026702;28;20184;-65
2023/03/30 00:05:10;;;;;;;5.53;3.40;;;18.10;97.50;;;;;;5028783;28;20455;-65
2023/03/30 00:07:43;;;;;;;8.67;3.97;;;18.10;97.40;;;;;;5034464;28;20519;-65
2023/03/30 00:10:11;;;;;;;11.00;3.83;;;18.00;97.60;;;;;;5026284;28;20453;-65
2023/03/30 00:12:37;;;;;;;6.93;3.53;;;18.00;97.60;;;;;;5030447;28;20468;-65
2023/03/30 00:15:05;;;;;;;8.97;3.40;;;18.00;97.60;;;;;;5027002;28;20933;-65
2023/03/30 00:17:32;;;;;;;7.70;4.23;;;17.90;97.60;;;;;;5031018;28;20196;-65
2023/03/30 00:20:00;;;;;;;9.73;3.70;;;17.80;97.70;;;;;;5031408;28;20450;-65
2023/03/30 00:22:27;;;;;;;9.83;3.07;;;17.70;97.90;;;;;;5029105;28;20460;-65
2023/03/30 00:24:52;;;;;;;8.90;3.90;;;17.70;98.00;;;;;;5029115;28;20458;-65
2023/03/30 00:27:18;;;;;;;9.73;3.73;;;17.70;97.90;;;;;;5025092;28;20588;-66
2023/03/30 00:29:43;;;;;;;9.77;4.10;;;17.70;97.90;;;;;;5024212;28;20177;-65
2023/03/30 00:32:09;;;;;;;7.40;3.83;;;17.70;98.00;;;;;;5026879;28;20311;-66
2023/03/30 00:34:35;;;;;;;8.27;3.77;;;17.60;98.20;;;;;;5027736;28;20298;-65
2023/03/30 00:37:01;;;;;;;7.50;3.83;;;17.70;98.30;;;;;;5026247;28;20303;-65
2023/03/30 00:39:27;;;;;;;11.10;4.23;;;17.60;98.40;;;;;;5033386;28;20447;-65
2023/03/30 00:41:53;;;;;;;10.10;4.30;;;17.60;98.60;;;;;;5022314;28;20487;-65
2023/03/30 00:44:56;;;;;;;6.77;3.63;;;17.60;98.70;;;;;;5025649;28;20239;-65
2023/03/30 00:47:22;;;;;;;9.13;3.50;;;17.50;98.90;;;;;;5026469;28;20211;-65
2023/03/30 00:49:47;;;;;;;13.67;3.70;;;17.50;99.10;;;;;;5028563;28;21450;-65
2023/03/30 00:52:18;;;;;;;11.40;3.60;;;17.50;99.60;;;;;;5024740;28;20191;-65
2023/03/30 00:54:45;;;;;;;5.87;4.30;;;17.40;99.90;;;;;;5014747;28;20676;-64
2023/03/30 00:57:12;;;;;;;9.87;3.50;;;17.40;99.90;;;;;;5030439;28;20463;-64
2023/03/30 00:59:38;;;;;;;6.33;5.10;;;17.30;99.90;;;;;;5030937;28;20534;-64
2023/03/30 01:02:04;;;;;;;11.37;4.20;;;17.30;99.90;;;;;;5029945;28;20529;-63
2023/03/30 01:04:29;;;;;;;9.10;3.33;;;17.30;99.90;;;;;;5031048;28;20442;-64
2023/03/30 01:06:56;;;;;;;8.70;4.13;;;17.30;99.90;;;;;;5029189;28;20196;-63
2023/03/30 01:09:23;;;;;;;14.10;4.10;;;17.30;99.90;;;;;;5026612;28;20191;-64
2023/03/30 01:11:49;;;;;;;9.90;4.10;;;17.20;99.90;;;;;;5033409;28;21015;-64
2023/03/30 01:14:16;;;;;;;10.23;4.77;;;17.20;99.90;;;;;;5033432;28;20841;-64
2023/03/30 01:17:12;;;;;;;7.13;4.07;;;17.20;99.90;;;;;;5033364;28;20204;-64
2023/03/30 01:19:42;;;;;;;11.93;4.20;;;17.20;99.90;;;;;;5024395;28;20707;-63
2023/03/30 01:22:31;;;;;;;10.00;3.83;;;17.10;99.90;;;;;;5032179;28;20450;-63
2023/03/30 01:25:21;;;;;;;7.50;4.20;;;17.00;99.90;;;;;;5033000;28;20812;-63
2023/03/30 01:28:20;;;;;;;12.70;4.77;;;17.10;99.90;;;;;;5029291;28;20546;-63
2023/03/30 01:31:07;;;;;;;6.93;3.60;;;17.00;99.90;;;;;;5030000;28;20891;-63
2023/03/30 01:34:10;;;;;;;15.87;3.90;;;16.90;99.90;;;;;;5030110;28;21600;-63
2023/03/30 01:36:56;;;;;;;13.47;3.80;;;17.00;99.90;;;;;;5032017;28;20548;-63
2023/03/30 01:39:38;;;;;;;9.67;4.03;;;17.00;99.90;;;;;;5037353;28;21104;-63
2023/03/30 01:42:34;;;;;;;12.77;3.97;;;17.10;99.90;;;;;;5036771;28;20672;-63
2023/03/30 01:45:24;;;;;;;9.40;4.17;;;17.00;99.90;;;;;;5039914;28;20470;-64
2023/03/30 01:47:53;;;;;;;12.77;4.03;;;17.00;99.90;;;;;;5033121;28;20461;-64
2023/03/30 01:50:34;;;;;;;7.53;3.80;;;17.10;99.90;;;;;;5031443;28;20790;-63
2023/03/30 01:53:06;;;;;;;9.90;4.00;;;17.10;99.90;;;;;;5036413;28;20474;-64
2023/03/30 01:55:56;;;;;;;22.33;5.13;;;17.10;99.90;;;;;;5031828;28;20510;-65
2023/03/30 01:58:47;;;;;;;11.57;5.17;;;17.10;99.90;;;;;;5032112;28;20453;-65
2023/03/30 02:01:16;;;;;;;10.30;4.00;;;17.10;99.90;;;;;;5032739;28;20449;-64
2023/03/30 02:03:45;;;;;;;11.77;4.70;;;17.10;99.90;;;;;;5032554;28;20439;-64
2023/03/30 02:06:39;;;;;;;9.50;3.93;;;17.10;99.90;;;;;;5032126;28;20795;-64
2023/03/30 02:09:08;;;;;;;10.97;5.20;;;17.00;99.90;;;;;;5031194;28;20434;-64
2023/03/30 02:11:36;;;;;;;12.03;4.80;;;17.00;99.90;;;;;;5026155;28;20514;-63
2023/03/30 02:14:04;;;;;;;8.00;3.60;;;17.00;99.90;;;;;;5034077;28;20457;-65
2023/03/30 02:16:36;;;;;;;9.33;4.07;;;17.00;99.90;;;;;;5031456;28;20493;-65
2023/03/30 02:19:05;;;;;;;11.77;4.17;;;17.00;99.90;;;;;;5027576;28;20442;-65
2023/03/30 02:21:31;;;;;;;9.33;4.10;;;17.00;99.90;;;;;;5024613;28;20434;-65
2023/03/30 02:23:59;;;;;;;17.23;4.13;;;17.00;99.90;;;;;;5029035;28;20540;-65
2023/03/30 02:26:26;;;;;;;13.27;4.77;;;16.90;99.90;;;;;;5033544;28;20465;-65
2023/03/30 02:28:52;;;;;;;16.03;4.80;;;16.80;99.90;;;;;;5033374;28;20422;-64
2023/03/30 02:31:18;;;;;;;11.03;4.37;;;16.80;99.90;;;;;;5036665;28;20451;-64
2023/03/30 02:34:02;;;;;;;14.43;5.30;;;16.80;99.90;;;;;;5031154;28;20462;-63
2023/03/30 02:36:48;;;;;;;14.93;5.43;;;16.70;99.90;;;;;;5030781;28;20215;-64
2023/03/30 02:39:38;;;;;;;15.97;5.13;;;16.60;99.90;;;;;;5033533;28;20430;-64
2023/03/30 02:42:21;;;;;;;10.70;4.47;;;16.60;99.90;;;;;;5026061;28;20435;-65
2023/03/30 02:44:59;;;;;;;11.20;3.60;;;16.60;99.90;;;;;;5029704;28;20476;-64
2023/03/30 02:47:42;;;;;;;12.90;4.50;;;16.60;99.90;;;;;;5022789;28;20458;-65
2023/03/30 02:50:23;;;;;;;17.80;4.63;;;16.60;99.90;;;;;;5026352;28;21069;-64
2023/03/30 02:53:13;;;;;;;17.07;4.67;;;16.60;99.90;;;;;;5030742;28;20477;-64
2023/03/30 02:55:44;;;;;;;12.50;3.83;;;16.60;99.90;;;;;;5032528;28;21019;-64
2023/03/30 02:58:15;;;;;;;10.33;5.27;;;16.70;99.90;;;;;;5030780;28;21339;-63
2023/03/30 03:00:51;;;;;;;10.10;4.20;;;16.70;99.90;;;;;;5034643;28;20422;-64
2023/03/30 03:03:22;;;;;;;15.33;4.60;;;16.70;99.90;;;;;;5033094;28;20448;-64
2023/03/30 03:05:52;;;;;;;14.70;3.90;;;16.80;99.90;;;;;;5029447;28;21358;-64
2023/03/30 03:08:22;;;;;;;13.00;4.13;;;16.80;99.90;;;;;;5031114;28;20458;-64
2023/03/30 03:10:48;;;;;;;12.00;4.60;;;16.80;99.90;;;;;;5031045;28;22426;-63
2023/03/30 03:13:15;;;;;;;11.10;4.30;;;16.70;99.90;;;;;;5025721;28;20542;-63
2023/03/30 03:15:44;;;;;;;12.13;3.93;;;16.70;99.90;;;;;;5030321;28;20902;-64
2023/03/30 03:18:11;;;;;;;12.40;4.43;;;16.70;99.90;;;;;;5034173;28;20971;-64
2023/03/30 03:20:37;;;;;;;12.67;4.10;;;16.60;99.90;;;;;;5035111;28;20481;-63
2023/03/30 03:23:04;;;;;;;7.73;3.93;;;16.70;99.90;;;;;;5033745;28;20438;-63
2023/03/30 03:25:30;;;;;;;10.77;4.13;;;16.70;99.90;;;;;;5029578;28;20507;-64
2023/03/30 03:27:56;;;;;;;9.80;4.37;;;16.60;99.90;;;;;;5026053;28;20459;-63
2023/03/30 03:30:22;;;;;;;13.10;3.73;;;16.60;99.90;;;;;;5028449;28;20192;-63
2023/03/30 03:32:48;;;;;;;14.97;4.70;;;16.60;99.90;;;;;;5031532;28;20426;-63
2023/03/30 03:35:14;;;;;;;12.27;4.07;;;16.60;99.90;;;;;;5027479;28;20189;-63
2023/03/30 03:37:40;;;;;;;14.60;3.93;;;16.60;99.90;;;;;;5032846;28;20450;-63
2023/03/30 03:40:06;;;;;;;13.70;5.90;;;16.60;99.90;;;;;;5032419;28;20194;-63
2023/03/30 03:42:32;;;;;;;7.20;3.60;;;16.70;99.90;;;;;;5031991;28;20183;-64
2023/03/30 03:44:58;;;;;;;17.43;5.00;;;16.60;99.90;;;;;;5026782;28;20435;-64
2023/03/30 03:47:23;;;;;;;16.03;4.03;;;16.60;99.90;;;;;;5026015;28;20201;-64
2023/03/30 03:49:49;;;;;;;13.33;5.40;;;16.60;99.90;;;;;;5028240;28;20681;-65
2023/03/30 03:52:15;;;;;;;20.03;4.83;;;16.60;99.90;;;;;;5025996;28;20187;-65
2023/03/30 03:54:40;;;;;;;11.23;3.80;;;16.60;99.90;;;;;;5028410;28;20277;-65
2023/03/30 03:57:06;;;;;;;12.17;4.67;;;16.60;99.90;;;;;;5027111;28;20539;-65
2023/03/30 03:59:32;;;;;;;10.47;4.40;;;16.60;99.90;;;;;;5028236;28;20207;-65
2023/03/30 04:01:57;;;;;;;14.00;4.70;;;16.60;99.90;;;;;;5033559;28;20180;-64
2023/03/30 04:04:23;;;;;;;10.77;4.50;;;16.60;99.90;;;;;;5029715;28;20202;-64
2023/03/30 04:06:48;;;;;;;13.53;7.30;;;16.60;99.90;;;;;;5027392;28;20204;-64
2023/03/30 04:09:14;;;;;;;12.63;5.33;;;16.60;99.90;;;;;;5033763;28;20245;-64
2023/03/30 04:11:40;;;;;;;13.47;5.23;;;16.50;99.90;;;;;;5029704;28;20964;-64
2023/03/30 04:14:06;;;;;;;15.13;5.73;;;16.50;99.90;;;;;;5028381;28;20227;-65
2023/03/30 04:16:31;;;;;;;13.40;4.90;;;16.50;99.90;;;;;;5030053;28;20493;-64
2023/03/30 04:18:58;;;;;;;13.83;4.87;;;16.50;99.90;;;;;;5030302;28;20546;-64
2023/03/30 04:21:24;;;;;;;9.97;4.47;;;16.50;99.90;;;;;;5030459;28;20373;-63
2023/03/30 04:23:49;;;;;;;17.33;6.70;;;16.50;99.90;;;;;;5028683;28;20815;-64
2023/03/30 04:26:16;;;;;;;11.13;5.10;;;16.40;99.90;;;;;;5028835;28;20302;-64
2023/03/30 04:28:42;;;;;;;11.60;4.50;;;16.40;99.90;;;;;;5032068;28;20186;-63
2023/03/30 04:31:09;;;;;;;16.73;6.03;;;16.40;99.90;;;;;;5030268;28;20443;-62
2023/03/30 04:33:36;;;;;;;18.73;5.27;;;16.40;99.90;;;;;;5033145;28;20238;-63
2023/03/30 04:36:03;;;;;;;22.57;5.27;;;16.30;99.90;;;;;;5024414;28;20465;-63
2023/03/30 04:38:29;;;;;;;17.50;5.83;;;16.30;99.90;;;;;;5034138;28;21111;-63
2023/03/30 04:40:55;;;;;;;12.10;4.60;;;16.30;99.90;;;;;;5030689;28;20431;-63
2023/03/30 04:43:22;;;;;;;14.57;4.87;;;16.30;99.90;;;;;;5032642;28;20539;-63
2023/03/30 04:45:53;;;;;;;10.70;4.93;;;16.30;99.90;;;;;;5025728;28;20562;-64
2023/03/30 04:48:20;;;;;;;18.23;4.77;;;16.20;99.90;;;;;;5028615;28;20467;-64
2023/03/30 04:50:48;;;;;;;11.73;4.70;;;16.20;99.90;;;;;;5027383;28;20978;-64
2023/03/30 04:53:14;;;;;;;20.17;5.30;;;16.20;99.90;;;;;;5023746;28;20544;-64
2023/03/30 04:55:40;;;;;;;13.10;4.33;;;16.20;99.90;;;;;;5026148;28;20469;-63
2023/03/30 04:58:06;;;;;;;10.97;5.00;;;16.20;99.90;;;;;;5028386;28;20504;-63
2023/03/30 05:00:32;;;;;;;13.60;5.20;;;16.10;99.90;;;;;;5027502;28;20939;-64
2023/03/30 05:02:58;;;;;;;16.10;4.67;;;16.10;99.90;;;;;;5030262;28;20181;-63
2023/03/30 05:05:23;;;;;;;15.53;5.40;;;16.10;99.90;;;;;;5031142;28;20782;-64
2023/03/30 05:07:49;;;;;;;15.47;4.67;;;16.10;99.90;;;;;;5028716;28;20203;-63
2023/03/30 05:10:14;;;;;;;12.53;4.67;;;16.00;99.90;;;;;;5031913;28;20549;-64
2023/03/30 05:12:40;;;;;;;13.00;4.53;;;16.00;99.90;;;;;;5031351;28;20617;-63
2023/03/30 05:15:06;;;;;;;13.87;4.80;;;16.00;99.90;;;;;;5030409;28;20183;-63
2023/03/30 05:17:33;;;;;;;17.20;6.63;;;16.00;99.90;;;;;;5029443;28;20709;-63
2023/03/30 05:19:58;;;;;;;10.90;5.10;;;16.10;99.90;;;;;;5027341;28;20443;-64
2023/03/30 05:22:24;;;;;;;13.83;4.53;;;16.00;99.90;;;;;;5030775;28;21357;-64
2023/03/30 05:24:53;;;;;;;19.67;4.90;;;15.70;99.90;;;;;;5033718;28;20265;-64
2023/03/30 05:27:19;;;;;;;15.33;4.80;;;15.50;99.90;;;;;;5030961;28;20462;-64
2023/03/30 05:29:44;;;;;;;20.67;5.27;;;15.50;99.90;;;;;;5027072;28;20443;-64
2023/03/30 05:32:10;;;;;;;14.03;5.77;;;15.60;99.90;;;;;;5025850;28;20800;-64
2023/03/30 05:34:36;;;;;;;16.40;6.00;;;15.60;99.90;;;;;;5026859;28;20203;-64
2023/03/30 05:37:01;;;;;;;15.40;5.40;;;15.70;99.90;;;;;;5030925;28;20208;-64
2023/03/30 05:39:27;;;;;;;18.10;5.90;;;15.70;99.90;;;;;;5024875;28;20184;-64
2023/03/30 05:41:53;;;;;;;15.00;5.53;;;15.60;99.90;;;;;;5021442;28;20263;-64
2023/03/30 05:44:18;;;;;;;14.40;5.37;;;15.50;99.90;;;;;;5033402;28;20267;-64
2023/03/30 05:46:44;;;;;;;15.17;4.57;;;15.50;99.90;;;;;;5024818;28;20677;-64
2023/03/30 05:49:10;;;;;;;11.07;4.27;;;15.50;99.90;;;;;;5025011;28;20207;-63
2023/03/30 05:51:35;;;;;;;13.80;4.17;;;15.40;99.90;;;;;;5025877;28;20179;-62
2023/03/30 05:54:02;;;;;;;14.70;4.93;;;15.50;99.90;;;;;;5025611;28;20465;-64
2023/03/30 05:56:27;;;;;;;10.17;4.27;;;15.30;99.90;;;;;;5024400;28;20278;-64
2023/03/30 05:58:53;;;;;;;13.07;4.03;;;15.40;99.90;;;;;;5026020;28;20470;-64
2023/03/30 06:01:20;;;;;;;12.93;4.97;;;15.40;99.90;;;;;;5029491;28;20180;-64
2023/03/30 06:03:46;;;;;;;14.10;4.40;;;15.40;99.90;;;;;;5035965;28;20195;-64
2023/03/30 06:06:12;;;;;;;11.93;4.90;;;15.50;99.90;;;;;;5029616;28;20467;-64
2023/03/30 06:08:39;;;;;;;13.10;5.37;;;15.50;99.90;;;;;;5033629;28;20180;-63
2023/03/30 06:11:05;;;;;;;14.60;5.30;;;15.50;99.90;;;;;;5030396;28;20480;-63
2023/03/30 06:13:31;;;;;;;18.07;5.27;;;15.40;99.90;;;;;;5027900;28;20462;-64
2023/03/30 06:15:56;;;;;;;16.60;5.93;;;15.30;99.90;;;;;;5030724;28;20441;-64
2023/03/30 06:18:22;;;;;;;12.57;5.03;;;15.20;99.90;;;;;;5027339;28;20785;-63
2023/03/30 06:20:48;;;;;;;15.90;5.63;;;15.20;99.90;;;;;;5034776;28;20278;-63
2023/03/30 06:23:14;;;;;;;15.70;5.13;;;15.20;99.90;;;;;;5029817;28;20199;-65
2023/03/30 06:25:40;;;;;;;15.03;5.50;;;15.20;99.90;;;;;;5033563;28;20469;-63
2023/03/30 06:28:06;;;;;;;19.93;6.37;;;15.20;99.90;;;;;;5029964;28;20903;-63
2023/03/30 06:30:32;;;;;;;12.87;6.63;;;15.20;99.90;;;;;;5031757;28;20172;-63
2023/03/30 06:32:57;;;;;;;15.33;5.40;;;15.20;99.90;;;;;;5034310;28;20953;-63
2023/03/30 06:35:23;;;;;;;15.10;5.40;;;15.20;99.90;;;;;;5036416;28;20825;-64
2023/03/30 06:37:49;;;;;;;14.33;5.63;;;15.20;99.90;;;;;;5031406;28;20210;-64
2023/03/30 06:40:16;;;;;;;15.43;4.97;;;15.20;99.90;;;;;;5030075;28;20195;-64
2023/03/30 06:42:43;;;;;;;10.97;5.63;;;15.20;99.90;;;;;;5033582;28;20179;-64
2023/03/30 06:45:10;;;;;;;19.80;7.50;;;15.10;99.90;;;;;;5032336;28;20437;-64
2023/03/30 06:47:36;;;;;;;15.33;6.30;;;15.10;99.90;;;;;;5032822;28;20453;-63
2023/03/30 06:50:02;;;;;;;12.03;5.60;;;15.00;99.90;;;;;;5042117;28;20436;-62
2023/03/30 06:52:28;;;;;;;13.60;5.70;;;15.00;99.90;;;;;;5030288;28;20534;-62
2023/03/30 06:54:53;;;;;;;14.30;5.80;;;15.00;99.90;;;;;;5036612;28;20552;-63
2023/03/30 06:57:19;;;;;;;11.13;5.70;;;15.00;99.90;;;;;;5029127;28;20192;-63
2023/03/30 06:59:45;;;;;;;12.83;5.53;;;15.10;99.90;;;;;;5033757;28;20209;-63
2023/03/30 07:02:14;;;;;;;11.77;5.33;;;15.10;99.90;;;;;;5035198;28;20179;-62
2023/03/30 07:04:40;;;;;;;13.87;5.03;;;14.90;99.90;;;;;;5031937;28;20672;-62
2023/03/30 07:07:05;;;;;;;11.60;5.13;;;14.90;99.90;;;;;;5015990;28;20465;-62
2023/03/30 07:09:31;;;;;;;13.53;5.97;;;14.80;99.90;;;;;;5031811;28;20525;-63
2023/03/30 07:11:57;;;;;;;13.93;5.80;;;14.90;99.90;;;;;;5020561;28;20196;-63
2023/03/30 07:14:22;;;;;;;11.10;5.10;;;14.80;99.90;;;;;;5014696;28;20216;-64
2023/03/30 07:16:48;;;;;;;13.80;5.57;;;14.80;99.90;;;;;;5025684;28;20204;-63
2023/03/30 07:19:15;;;;;;;14.20;5.67;;;14.80;99.90;;;;;;5032593;28;20198;-63
2023/03/30 07:21:40;;;;;;;9.23;5.50;;;14.80;99.90;;;;;;5025840;28;20184;-63
2023/03/30 07:24:07;;;;;;;12.23;5.10;;;14.70;99.90;;;;;;5034023;28;20505;-64
2023/03/30 07:26:32;;;;;;;8.80;4.83;;;14.80;99.90;;;;;;5032214;28;20295;-64
2023/03/30 07:28:58;;;;;;;11.67;4.57;;;14.80;99.90;;;;;;5025028;28;20530;-62
2023/03/30 07:31:24;;;;;;;12.17;5.20;;;14.80;99.90;;;;;;5031470;28;20192;-64
2023/03/30 07:33:50;;;;;;;16.70;5.40;;;14.90;99.90;;;;;;5032546;28;20207;-64
2023/03/30 07:36:17;;;;;;;11.23;4.57;;;14.90;99.90;;;;;;5029059;28;20433;-63
2023/03/30 07:38:43;;;;;;;16.47;5.80;;;14.80;99.90;;;;;;5034537;28;20939;-62
2023/03/30 07:41:11;;;;;;;13.30;5.13;;;14.80;99.90;;;;;;5027084;28;20450;-62
2023/03/30 07:43:39;;;;;;;14.00;5.20;;;14.80;99.90;;;;;;5027042;28;20177;-62
2023/03/30 07:46:05;;;;;;;13.70;5.50;;;14.70;99.90;;;;;;5024253;28;20434;-63
2023/03/30 07:48:31;;;;;;;9.47;5.23;;;14.60;99.90;;;;;;5032084;28;20821;-63
2023/03/30 07:51:01;;;;;;;13.07;6.10;;;14.60;99.90;;;;;;5022502;28;20443;-63
2023/03/30 07:53:27;;;;;;;13.40;5.77;;;14.60;99.90;;;;;;5033360;28;20422;-64
2023/03/30 07:55:53;;;;;;;14.27;7.20;;;14.50;99.90;;;;;;5029978;28;20495;-62
2023/03/30 07:58:19;;;;;;;17.60;6.40;;;14.50;99.90;;;;;;5026334;28;20679;-63
2023/03/30 08:00:46;;;;;;;8.00;4.70;;;14.50;99.90;;;;;;5025252;28;20447;-63
2023/03/30 08:03:12;;;;;;;10.10;6.00;;;14.40;99.90;;;;;;5029172;28;20559;-63
2023/03/30 08:05:37;;;;;;;13.80;4.90;;;14.40;99.90;;;;;;5030652;28;20443;-63
2023/03/30 08:08:03;;;;;;;14.00;6.10;;;14.40;99.90;;;;;;5026401;28;20200;-63
2023/03/30 08:10:29;;;;;;;14.73;6.10;;;14.40;99.90;;;;;;5025974;28;20281;-63
2023/03/30 08:12:54;;;;;;;9.63;4.93;;;14.40;99.90;;;;;;5029106;28;20620;-64
2023/03/30 08:15:20;;;;;;;12.60;4.33;;;14.50;99.90;;;;;;5027715;28;20176;-64
2023/03/30 08:17:45;;;;;;;10.43;4.37;;;14.60;99.90;;;;;;5033846;28;20283;-63
2023/03/30 08:20:11;;;;;;;10.03;5.27;;;14.60;99.90;;;;;;5026032;28;20199;-63
2023/03/30 08:22:37;;;;;;;12.03;4.87;;;14.70;99.90;;;;;;5024912;28;20179;-63
2023/03/30 08:25:03;;;;;;;9.90;4.10;;;14.70;99.90;;;;;;5033094;28;20241;-63
2023/03/30 08:27:30;;;;;;;7.17;3.97;;;14.80;99.90;;;;;;5027126;28;20477;-63
2023/03/30 08:29:55;;;;;;;9.97;4.10;;;15.00;99.90;;;;;;5032211;28;20449;-64
2023/03/30 08:32:21;;;;;;;8.33;4.27;;;15.20;99.90;;;;;;5027450;28;20438;-64
2023/03/30 08:34:47;;;;;;;6.80;3.80;;;15.30;99.90;;;;;;5028843;28;20219;-63
2023/03/30 08:37:12;;;;;;;5.93;3.90;;;15.30;99.90;;;;;;5030745;28;20208;-64
2023/03/30 08:39:38;;;;;;;9.47;4.13;;;15.40;99.90;;;;;;5033788;28;20180;-63
2023/03/30 08:42:04;;;;;;;7.20;3.20;;;15.50;99.90;;;;;;5025603;28;20723;-63
2023/03/30 08:44:33;;;;;;;5.73;3.37;;;15.50;99.90;;;;;;5028782;28;20379;-64
2023/03/30 08:47:02;;;;;;;15.07;4.33;;;15.40;99.90;;;;;;5028576;28;20458;-63
2023/03/30 08:49:32;;;;;;;10.83;4.03;;;15.60;99.90;;;;;;5030060;28;21013;-63
2023/03/30 08:52:00;;;;;;;9.23;2.97;;;15.70;99.90;;;;;;5028173;28;20913;-63
2023/03/30 08:54:27;;;;;;;5.40;3.00;;;15.80;99.90;;;;;;5029951;28;20479;-63
2023/03/30 08:57:20;;;;;;;5.00;3.20;;;15.90;99.90;;;;;;5027865;28;20446;-63
2023/03/30 08:59:49;;;;;;;5.40;3.50;;;15.80;99.90;;;;;;5029439;28;21058;-64
2023/03/30 09:02:22;;;;;;;5.03;2.90;;;16.00;99.90;;;;;;5025591;28;20438;-62
2023/03/30 09:05:06;;;;;;;5.73;3.33;;;16.00;99.90;;;;;;5029228;28;20459;-63
2023/03/30 09:07:38;;;;;;;8.50;3.10;;;16.00;99.90;;;;;;5026710;28;20600;-64
2023/03/30 09:10:11;;;;;;;9.67;3.50;;;16.00;99.90;;;;;;5026074;28;20944;-64
2023/03/30 09:12:42;;;;;;;15.40;4.00;;;16.10;99.90;;;;;;5025303;28;20517;-62
2023/03/30 09:15:29;;;;;;;9.57;3.07;;;16.20;99.90;;;;;;5023721;28;20858;-62
2023/03/30 09:18:21;;;;;;;8.57;4.00;;;16.00;99.90;;;;;;5027318;28;20461;-62
2023/03/30 09:20:49;;;;;;;6.30;4.20;;;15.80;99.90;;;;;;5031465;28;20509;-65
2023/03/30 09:23:17;;;;;;;9.93;4.07;;;15.80;99.90;;;;;;5020575;28;20431;-63
2023/03/30 09:25:54;;;;;;;7.87;4.10;;;15.80;99.90;;;;;;5027519;28;20657;-62
2023/03/30 09:28:31;;;;;;;8.87;4.37;;;15.60;99.90;;;;;;5028427;28;20464;-61
2023/03/30 09:31:02;;;;;;;6.70;3.43;;;15.20;99.90;;;;;;5031556;28;20446;-63
2023/03/30 09:33:45;;;;;;;6.73;2.93;;;15.10;99.90;;;;;;5035577;28;20484;-62
2023/03/30 09:36:15;;;;;;;9.60;4.27;;;15.00;99.90;;;;;;5025781;28;20833;-62
2023/03/30 09:38:41;;;;;;;8.07;3.70;;;15.10;99.90;;;;;;5032823;28;20420;-62
2023/03/30 09:41:28;;;;;;;8.20;3.93;;;15.20;99.90;;;;;;5034665;28;20434;-62
2023/03/30 09:43:57;;;;;;;7.33;4.30;;;15.30;99.90;;;;;;5032451;28;20497;-62
2023/03/30 09:46:22;;;;;;;10.03;5.00;;;15.20;99.90;;;;;;5029949;28;21450;-63
2023/03/30 09:48:49;;;;;;;11.60;3.87;;;15.20;99.90;;;;;;5030515;28;20442;-64
2023/03/30 09:51:22;;;;;;;8.63;3.43;;;15.20;99.90;;;;;;5029980;28;20193;-65
2023/03/30 09:53:52;;;;;;;6.73;3.37;;;15.20;99.90;;;;;;5034653;28;20581;-63
2023/03/30 09:56:45;;;;;;;6.07;3.93;;;15.10;99.90;;;;;;5025521;28;20441;-64
2023/03/30 09:59:32;;;;;;;8.43;3.97;;;15.20;99.90;;;;;;5025947;28;20427;-64
2023/03/30 10:02:15;;;;;;;6.57;3.43;;;15.10;99.90;;;;;;5026312;28;20506;-63
2023/03/30 10:04:52;;;;;;;9.73;4.27;;;15.20;99.90;;;;;;5036084;28;20468;-63
2023/03/30 10:07:38;;;;;;;8.43;4.03;;;15.30;99.90;;;;;;5033052;28;20464;-62
2023/03/30 10:10:25;;;;;;;5.70;3.27;;;15.50;99.90;;;;;;5031314;28;20537;-62
2023/03/30 10:13:03;;;;;;;8.57;3.47;;;15.50;99.90;;;;;;5034059;28;20431;-63
2023/03/30 10:15:34;;;;;;;5.20;3.70;;;15.50;99.90;;;;;;5031794;28;20944;-63
2023/03/30 10:18:05;;;;;;;14.83;3.90;;;15.50;99.90;;;;;;5026403;28;20454;-63
2023/03/30 10:20:35;;;;;;;8.00;3.90;;;15.50;99.90;;;;;;5032577;28;20462;-63
2023/03/30 10:23:17;;;;;;;5.27;3.27;;;15.50;99.90;;;;;;5025086;28;20442;-63
2023/03/30 10:25:45;;;;;;;10.60;4.23;;;15.50;99.90;;;;;;5034986;28;20442;-64
2023/03/30 10:28:20;;;;;;;5.93;3.27;;;15.70;99.90;;;;;;5024460;28;20853;-64
2023/03/30 10:30:55;;;;;;;10.10;3.70;;;15.90;99.90;;;;;;5030925;28;20512;-64
2023/03/30 10:33:22;;;;;;;6.40;3.70;;;16.00;99.90;;;;;;5029542;28;20544;-64
2023/03/30 10:35:52;;;;;;;7.23;3.73;;;16.00;99.90;;;;;;5029990;28;20823;-63
2023/03/30 10:38:19;;;;;;;5.23;3.33;;;16.20;99.90;;;;;;5035003;28;20443;-62
2023/03/30 10:40:46;;;;;;;5.93;3.97;;;16.40;99.90;;;;;;5024790;28;20434;-63
2023/03/30 10:43:19;;;;;;;6.33;3.37;;;16.50;99.90;;;;;;5035308;28;20422;-65
2023/03/30 10:45:48;;;;;;;10.27;3.80;;;16.50;99.90;;;;;;5029547;28;20453;-63
2023/03/30 10:48:37;;;;;;;7.87;3.83;;;16.60;99.90;;;;;;5027579;28;20490;-63
2023/03/30 10:51:16;;;;;;;12.93;4.23;;;16.70;99.90;;;;;;5030731;28;20947;-64
2023/03/30 10:54:14;;;;;;;9.00;4.07;;;16.70;99.90;;;;;;5027897;28;20489;-65
2023/03/30 10:56:48;;;;;;;7.13;4.27;;;16.70;99.90;;;;;;5029342;28;20589;-64
2023/03/30 10:59:32;;;;;;;10.43;4.70;;;16.60;99.90;;;;;;5023610;28;20951;-63
2023/03/30 11:02:19;;;;;;;9.73;4.83;;;16.60;99.90;;;;;;5025808;28;20450;-63
2023/03/30 11:05:24;;;;;;;9.57;3.57;;;16.70;99.90;;;;;;5030475;28;20799;-63
2023/03/30 11:08:06;;;;;;;6.50;3.60;;;16.70;99.90;;;;;;5029276;28;20470;-63
2023/03/30 11:10:46;;;;;;;11.13;3.90;;;16.60;99.90;;;;;;5025941;28;20492;-63
2023/03/30 11:13:30;;;;;;;7.67;4.10;;;16.40;99.90;;;;;;5031516;28;20802;-66
2023/03/30 11:16:20;;;;;;;9.33;4.23;;;16.40;99.90;;;;;;5026351;28;20460;-67
2023/03/30 11:18:53;;;;;;;8.20;3.70;;;16.60;99.90;;;;;;5027256;28;20453;-65
2023/03/30 11:21:29;;;;;;;7.10;3.53;;;16.60;99.90;;;;;;5022196;28;20435;-66
2023/03/30 11:23:58;;;;;;;8.53;4.70;;;16.70;99.90;;;;;;5024854;28;20955;-65
2023/03/30 11:26:36;;;;;;;5.57;3.70;;;16.70;99.90;;;;;;5032487;28;20497;-65
2023/03/30 11:29:25;;;;;;;5.47;3.10;;;16.80;99.90;;;;;;5023665;28;20435;-66
2023/03/30 11:32:06;;;;;;;9.23;4.50;;;16.90;99.90;;;;;;5023385;28;20539;-65
2023/03/30 11:34:47;;;;;;;6.97;4.60;;;17.00;99.90;;;;;;5027768;28;20460;-66
2023/03/30 11:37:28;;;;;;;8.33;4.00;;;17.10;99.90;;;;;;5028862;28;20454;-65
2023/03/30 11:40:17;;;;;;;7.23;3.73;;;17.20;99.90;;;;;;5028069;28;21049;-65
2023/03/30 11:42:44;;;;;;;8.10;4.20;;;17.20;99.90;;;;;;5010548;28;20434;-65
2023/03/30 11:45:32;;;;;;;7.40;4.30;;;17.10;99.90;;;;;;5018358;28;21016;-64
2023/03/30 11:48:37;;;;;;;6.80;4.27;;;17.20;99.90;;;;;;5042315;28;21225;-64
2023/03/30 11:51:21;;;;;;;7.33;4.50;;;17.30;99.90;;;;;;5025775;28;20454;-64
2023/03/30 11:54:18;;;;;;;8.53;4.37;;;17.20;99.90;;;;;;5034944;28;20461;-65
2023/03/30 11:57:09;;;;;;;9.17;4.10;;;17.30;99.90;;;;;;5031678;28;20849;-64
2023/03/30 12:00:07;;;;;;;8.13;4.27;;;17.40;99.90;;;;;;5027598;28;20446;-64
2023/03/30 12:02:48;;;;;;;10.33;4.83;;;17.70;99.90;;;;;;5031571;28;20442;-64
2023/03/30 12:05:26;;;;;;;6.10;4.10;;;17.70;99.90;;;;;;5029717;28;20427;-65
2023/03/30 12:08:10;;;;;;;8.50;4.80;;;17.90;99.90;;;;;;5033406;28;20443;-64
2023/03/30 12:10:40;;;;;;;7.67;4.40;;;18.40;99.90;;;;;;5029870;28;20430;-64
2023/03/30 12:13:12;;;;;;;8.50;4.03;;;18.50;99.90;;;;;;5032061;28;20851;-63
2023/03/30 12:16:02;;;;;;;5.30;3.70;;;18.20;99.90;;;;;;5036935;28;20417;-63
2023/03/30 12:18:35;;;;;;;8.57;4.27;;;17.80;99.90;;;;;;5026225;28;20934;-64
2023/03/30 12:21:12;;;;;;;6.53;3.80;;;17.40;99.90;;;;;;5026157;28;20454;-65
2023/03/30 12:23:44;;;;;;;6.30;4.13;;;17.20;99.90;;;;;;5026771;28;20437;-65
2023/03/30 12:26:28;;;;;;;9.50;4.80;;;16.80;99.90;;;;;;5027898;28;21878;-65
2023/03/30 12:29:03;;;;;;;9.20;4.83;;;16.70;99.90;;;;;;5028011;28;20434;-65
2023/03/30 12:32:01;;;;;;;9.67;5.90;;;16.40;99.90;;;;;;5033707;28;20528;-65
2023/03/30 12:34:36;;;;;;;8.43;5.30;;;16.00;99.90;;;;;;5030347;28;20496;-66
2023/03/30 12:37:05;;;;;;;6.73;3.60;;;15.80;99.90;;;;;;5029318;28;21048;-64
2023/03/30 12:39:47;;;;;;;7.30;4.60;;;15.60;99.90;;;;;;5031749;28;20433;-64
2023/03/30 12:42:33;;;;;;;10.93;4.40;;;15.70;99.90;;;;;;5024608;28;20435;-64
2023/03/30 12:45:33;;;;;;;10.20;3.90;;;15.40;99.90;;;;;;5031196;28;20422;-64
2023/03/30 12:48:40;;;;;;;7.83;3.83;;;15.30;99.90;;;;;;5028265;28;20438;-63
2023/03/30 12:51:44;;;;;;;7.90;4.20;;;15.30;99.90;;;;;;5026248;28;20846;-63
2023/03/30 12:54:16;;;;;;;7.10;4.63;;;15.40;99.90;;;;;;5024305;28;20618;-63
2023/03/30 12:57:04;;;;;;;8.33;4.03;;;15.40;99.90;;;;;;5027310;28;20447;-63
2023/03/30 13:00:08;;;;;;;5.57;3.50;;;15.40;99.90;;;;;;5030035;28;20521;-64
2023/03/30 13:02:53;;;;;;;6.90;4.00;;;15.40;99.90;;;;;;5032579;28;20814;-64
2023/03/30 13:05:31;;;;;;;8.27;3.67;;;15.50;99.90;;;;;;5030625;28;20439;-64